createdAt,value
2018-08-13T00:00:45.945Z,15.06
2018-08-13T00:01:46.187Z,14.91
2018-08-13T00:02:46.429Z,14.77
2018-08-13T00:03:46.669Z,14.72
2018-08-13T00:04:46.905Z,14.62
2018-08-13T00:05:47.144Z,14.61
2018-08-13T00:06:47.386Z,14.57
2018-08-13T00:07:47.627Z,14.51
2018-08-13T00:08:47.869Z,14.46
2018-08-13T00:09:48.110Z,14.43
2018-08-13T00:10:48.352Z,14.42
2018-08-13T00:11:48.593Z,14.37
2018-08-13T00:12:48.837Z,14.36
2018-08-13T00:13:49.077Z,14.20
2018-08-13T00:14:49.320Z,14.18
2018-08-13T00:15:49.560Z,14.18
2018-08-13T00:16:49.802Z,14.20
2018-08-13T00:17:50.039Z,14.03
2018-08-13T00:18:50.277Z,14.03
2018-08-13T00:19:50.519Z,13.92
2018-08-13T00:20:50.762Z,13.87
2018-08-13T00:21:50.994Z,14.02
2018-08-13T00:22:51.242Z,13.95
2018-08-13T00:23:51.478Z,13.96
2018-08-13T00:24:51.707Z,13.95
2018-08-13T00:25:51.947Z,13.97
2018-08-13T00:26:52.186Z,13.96
2018-08-13T00:27:52.426Z,13.95
2018-08-13T00:28:52.669Z,13.95
2018-08-13T00:29:52.951Z,13.96
2018-08-13T00:30:53.148Z,13.96
2018-08-13T00:31:53.388Z,13.99
2018-08-13T00:32:53.630Z,13.84
2018-08-13T00:33:53.871Z,13.92
2018-08-13T00:34:54.111Z,13.85
2018-08-13T00:35:54.352Z,13.75
2018-08-13T00:36:54.593Z,13.77
2018-08-13T00:37:54.832Z,13.75
2018-08-13T00:38:55.079Z,13.60
2018-08-13T00:39:55.318Z,13.64
2018-08-13T00:40:55.559Z,13.59
2018-08-13T00:41:55.788Z,13.57
2018-08-13T00:42:56.027Z,13.63
2018-08-13T00:43:56.272Z,13.63
2018-08-13T00:44:56.501Z,13.63
2018-08-13T00:45:56.740Z,13.62
2018-08-13T00:46:56.981Z,13.71
2018-08-13T00:47:57.222Z,13.70
2018-08-13T00:48:57.462Z,13.77
2018-08-13T00:49:57.704Z,13.78
2018-08-13T00:50:57.946Z,13.73
2018-08-13T00:51:58.187Z,13.77
2018-08-13T00:52:58.427Z,13.82
2018-08-13T00:53:58.658Z,14.07
2018-08-13T00:54:58.921Z,14.12
2018-08-13T00:55:59.162Z,14.20
2018-08-13T00:56:59.404Z,14.36
2018-08-13T00:57:59.636Z,14.43
2018-08-13T00:58:59.876Z,14.43
2018-08-13T01:00:00.121Z,14.52
2018-08-13T01:01:00.406Z,14.50
2018-08-13T01:02:00.598Z,14.46
2018-08-13T01:03:00.839Z,14.51
2018-08-13T01:04:01.083Z,14.28
2018-08-13T01:05:01.322Z,14.18
2018-08-13T01:06:01.554Z,14.17
2018-08-13T01:07:01.792Z,14.20
2018-08-13T01:08:02.031Z,14.25
2018-08-13T01:09:02.274Z,14.24
2018-08-13T01:10:02.515Z,14.27
2018-08-13T01:11:02.752Z,14.28
2018-08-13T01:12:02.992Z,14.35
2018-08-13T01:13:03.233Z,14.46
2018-08-13T01:14:03.473Z,14.43
2018-08-13T01:15:03.721Z,14.39
2018-08-13T01:16:03.956Z,14.33
2018-08-13T01:17:04.189Z,14.25
2018-08-13T01:18:04.434Z,14.29
2018-08-13T01:19:04.673Z,14.42
2018-08-13T01:20:04.915Z,14.47
2018-08-13T01:21:05.155Z,14.40
2018-08-13T01:22:05.401Z,14.37
2018-08-13T01:23:05.640Z,14.29
2018-08-13T01:24:05.881Z,14.22
2018-08-13T01:25:06.122Z,14.20
2018-08-13T01:26:06.352Z,14.14
2018-08-13T01:27:06.617Z,14.09
2018-08-13T01:28:06.857Z,13.81
2018-08-13T01:29:07.098Z,13.81
2018-08-13T01:30:07.337Z,13.69
2018-08-13T01:31:07.579Z,13.57
2018-08-13T01:32:07.820Z,13.45
2018-08-13T01:33:08.061Z,13.48
2018-08-13T01:34:08.301Z,13.33
2018-08-13T01:35:08.542Z,13.44
2018-08-13T01:36:08.778Z,13.36
2018-08-13T01:37:09.020Z,13.29
2018-08-13T01:38:09.261Z,13.28
2018-08-13T01:39:09.498Z,13.19
2018-08-13T01:40:09.737Z,13.14
2018-08-13T01:41:09.978Z,13.14
2018-08-13T01:42:10.219Z,13.07
2018-08-13T01:43:10.459Z,13.04
2018-08-13T01:44:10.702Z,13.01
2018-08-13T01:45:10.935Z,13.14
2018-08-13T01:46:11.174Z,13.19
2018-08-13T01:47:11.416Z,13.17
2018-08-13T01:48:11.656Z,13.20
2018-08-13T01:49:11.893Z,13.29
2018-08-13T01:50:12.135Z,13.30
2018-08-13T01:51:12.372Z,13.32
2018-08-13T01:52:12.612Z,13.28
2018-08-13T01:53:12.845Z,13.26
2018-08-13T01:54:13.084Z,13.28
2018-08-13T01:55:13.325Z,13.39
2018-08-13T01:56:13.566Z,13.26
2018-08-13T01:57:13.807Z,13.46
2018-08-13T01:58:14.038Z,13.42
2018-08-13T01:59:14.278Z,13.55
2018-08-13T02:00:14.521Z,13.51
2018-08-13T02:01:14.761Z,13.75
2018-08-13T02:02:14.996Z,13.87
2018-08-13T02:03:15.224Z,13.89
2018-08-13T02:04:15.466Z,14.03
2018-08-13T02:05:15.703Z,14.18
2018-08-13T02:06:15.944Z,14.25
2018-08-13T02:07:16.174Z,14.32
2018-08-13T02:08:16.428Z,14.36
2018-08-13T02:09:16.670Z,14.36
2018-08-13T02:10:16.912Z,14.24
2018-08-13T02:11:17.147Z,14.21
2018-08-13T02:12:17.388Z,14.20
2018-08-13T02:13:17.627Z,14.09
2018-08-13T02:14:17.868Z,14.07
2018-08-13T02:15:18.107Z,14.10
2018-08-13T02:16:18.347Z,14.07
2018-08-13T02:17:18.589Z,14.04
2018-08-13T02:18:18.830Z,14.00
2018-08-13T02:19:19.070Z,13.95
2018-08-13T02:20:19.310Z,13.92
2018-08-13T02:21:19.552Z,13.78
2018-08-13T02:22:19.791Z,13.63
2018-08-13T02:23:20.034Z,13.54
2018-08-13T02:24:20.271Z,13.38
2018-08-13T02:25:20.513Z,13.42
2018-08-13T02:26:20.752Z,13.26
2018-08-13T02:27:20.998Z,13.30
2018-08-13T02:28:21.233Z,13.23
2018-08-13T02:29:21.475Z,13.28
2018-08-13T02:30:21.717Z,13.17
2018-08-13T02:31:21.955Z,13.08
2018-08-13T02:32:22.197Z,13.03
2018-08-13T02:33:22.435Z,13.05
2018-08-13T02:34:22.673Z,13.04
2018-08-13T02:35:22.915Z,13.01
2018-08-13T02:36:23.141Z,13.05
2018-08-13T02:37:23.406Z,13.04
2018-08-13T02:38:23.648Z,12.95
2018-08-13T02:39:23.885Z,12.93
2018-08-13T02:40:24.126Z,12.92
2018-08-13T02:41:24.367Z,12.89
2018-08-13T02:42:24.605Z,12.77
2018-08-13T02:43:24.833Z,12.72
2018-08-13T02:44:25.068Z,12.68
2018-08-13T02:45:25.301Z,12.64
2018-08-13T02:46:25.539Z,12.67
2018-08-13T02:47:25.773Z,12.62
2018-08-13T02:48:26.009Z,12.64
2018-08-13T02:49:26.248Z,12.56
2018-08-13T02:50:26.474Z,12.54
2018-08-13T02:51:26.742Z,12.53
2018-08-13T02:52:26.981Z,12.52
2018-08-13T02:53:27.227Z,12.49
2018-08-13T02:54:27.462Z,12.39
2018-08-13T02:55:27.700Z,12.39
2018-08-13T02:56:27.941Z,12.35
2018-08-13T02:57:28.178Z,12.37
2018-08-13T02:58:28.415Z,12.38
2018-08-13T02:59:28.657Z,12.24
2018-08-13T03:00:28.896Z,12.28
2018-08-13T03:01:29.136Z,12.27
2018-08-13T03:02:29.378Z,12.27
2018-08-13T03:03:29.615Z,12.20
2018-08-13T03:04:29.859Z,12.28
2018-08-13T03:05:30.096Z,12.23
2018-08-13T03:06:30.326Z,12.39
2018-08-13T03:07:30.579Z,12.45
2018-08-13T03:08:30.810Z,12.50
2018-08-13T03:09:31.049Z,12.68
2018-08-13T03:10:31.288Z,12.78
2018-08-13T03:11:31.522Z,12.90
2018-08-13T03:12:31.760Z,12.89
2018-08-13T03:13:32.001Z,12.92
2018-08-13T03:14:32.229Z,12.89
2018-08-13T03:15:32.516Z,12.92
2018-08-13T03:16:32.777Z,12.89
2018-08-13T03:17:33.006Z,12.78
2018-08-13T03:18:33.244Z,12.68
2018-08-13T03:19:37.925Z,12.62
2018-08-13T03:20:33.804Z,12.60
2018-08-13T03:21:34.039Z,12.46
2018-08-13T03:22:34.282Z,12.45
2018-08-13T03:23:34.508Z,12.47
2018-08-13T03:24:34.747Z,12.50
2018-08-13T03:25:34.988Z,12.47
2018-08-13T03:26:35.227Z,12.42
2018-08-13T03:27:35.469Z,12.42
2018-08-13T03:28:35.707Z,12.39
2018-08-13T03:29:35.948Z,12.37
2018-08-13T03:30:36.244Z,12.28
2018-08-13T03:31:36.417Z,12.34
2018-08-13T03:32:36.655Z,12.21
2018-08-13T03:33:36.975Z,12.21
2018-08-13T03:34:37.136Z,12.13
2018-08-13T03:35:37.377Z,12.16
2018-08-13T03:36:37.615Z,12.01
2018-08-13T03:37:37.855Z,12.09
2018-08-13T03:38:38.083Z,12.07
2018-08-13T03:39:38.328Z,11.91
2018-08-13T03:40:38.572Z,11.88
2018-08-13T03:41:38.805Z,11.94
2018-08-13T03:42:39.046Z,11.88
2018-08-13T03:43:39.288Z,11.82
2018-08-13T03:44:39.515Z,11.72
2018-08-13T03:45:39.756Z,11.75
2018-08-13T03:46:39.988Z,11.75
2018-08-13T03:47:40.222Z,11.72
2018-08-13T03:48:40.459Z,11.78
2018-08-13T03:49:40.700Z,11.82
2018-08-13T03:50:40.939Z,11.90
2018-08-13T03:51:41.174Z,11.94
2018-08-13T03:52:41.404Z,11.95
2018-08-13T03:53:41.655Z,12.05
2018-08-13T03:54:41.873Z,12.04
2018-08-13T03:55:42.114Z,12.16
2018-08-13T03:56:42.355Z,12.19
2018-08-13T03:57:42.593Z,12.21
2018-08-13T03:58:42.833Z,12.34
2018-08-13T03:59:43.063Z,12.32
2018-08-13T04:00:43.306Z,12.39
2018-08-13T04:01:43.545Z,12.23
2018-08-13T04:02:43.782Z,12.24
2018-08-13T04:03:44.022Z,12.23
2018-08-13T04:04:44.261Z,12.27
2018-08-13T04:05:44.490Z,12.19
2018-08-13T04:06:44.738Z,12.13
2018-08-13T04:07:44.972Z,12.16
2018-08-13T04:08:45.214Z,12.05
2018-08-13T04:09:45.454Z,12.02
2018-08-13T04:10:45.695Z,12.05
2018-08-13T04:11:45.935Z,12.04
2018-08-13T04:12:46.202Z,12.04
2018-08-13T04:13:46.434Z,12.10
2018-08-13T04:14:46.671Z,12.24
2018-08-13T04:15:46.911Z,12.27
2018-08-13T04:16:47.153Z,12.24
2018-08-13T04:17:47.398Z,12.21
2018-08-13T04:18:47.633Z,12.21
2018-08-13T04:19:47.871Z,12.27
2018-08-13T04:20:48.112Z,12.24
2018-08-13T04:21:48.352Z,12.31
2018-08-13T04:22:48.591Z,12.31
2018-08-13T04:23:48.828Z,12.45
2018-08-13T04:24:49.059Z,12.52
2018-08-13T04:25:49.296Z,12.57
2018-08-13T04:26:49.533Z,12.56
2018-08-13T04:27:49.771Z,12.53
2018-08-13T04:28:50.011Z,12.65
2018-08-13T04:29:50.242Z,12.54
2018-08-13T04:30:50.475Z,12.59
2018-08-13T04:31:50.713Z,12.64
2018-08-13T04:32:50.967Z,12.62
2018-08-13T04:33:51.193Z,12.62
2018-08-13T04:34:51.431Z,12.62
2018-08-13T04:35:51.670Z,12.54
2018-08-13T04:36:51.913Z,12.59
2018-08-13T04:37:52.153Z,12.57
2018-08-13T04:38:52.384Z,12.54
2018-08-13T04:39:52.624Z,12.53
2018-08-13T04:40:52.866Z,12.59
2018-08-13T04:41:53.106Z,12.53
2018-08-13T04:42:53.343Z,12.57
2018-08-13T04:43:53.580Z,12.62
2018-08-13T04:44:53.821Z,12.72
2018-08-13T04:45:54.062Z,12.72
2018-08-13T04:46:54.305Z,12.72
2018-08-13T04:47:54.540Z,12.71
2018-08-13T04:48:54.767Z,12.78
2018-08-13T04:49:55.015Z,12.70
2018-08-13T04:50:55.246Z,12.78
2018-08-13T04:51:55.485Z,12.78
2018-08-13T04:52:55.725Z,12.83
2018-08-13T04:53:55.965Z,12.82
2018-08-13T04:54:56.205Z,12.89
2018-08-13T04:55:56.445Z,12.86
2018-08-13T04:56:56.685Z,12.79
2018-08-13T04:57:56.926Z,12.86
2018-08-13T04:58:57.202Z,12.93
2018-08-13T04:59:57.403Z,12.87
2018-08-13T05:00:57.636Z,12.90
2018-08-13T05:01:57.882Z,12.89
2018-08-13T05:02:58.123Z,12.93
2018-08-13T05:03:58.366Z,12.93
2018-08-13T05:04:58.603Z,12.90
2018-08-13T05:05:58.843Z,12.90
2018-08-13T05:06:59.084Z,12.93
2018-08-13T05:07:59.324Z,12.89
2018-08-13T05:08:59.565Z,13.01
2018-08-13T05:09:59.804Z,13.05
2018-08-13T05:11:00.045Z,13.04
2018-08-13T05:12:00.271Z,12.95
2018-08-13T05:13:00.535Z,13.00
2018-08-13T05:14:00.775Z,13.07
2018-08-13T05:15:01.015Z,13.14
2018-08-13T05:16:01.240Z,13.25
2018-08-13T05:17:01.479Z,13.29
2018-08-13T05:18:01.721Z,13.41
2018-08-13T05:19:01.962Z,13.46
2018-08-13T05:20:02.203Z,13.39
2018-08-13T05:21:02.444Z,13.54
2018-08-13T05:22:02.686Z,13.49
2018-08-13T05:23:02.925Z,13.55
2018-08-13T05:24:03.169Z,13.49
2018-08-13T05:25:03.410Z,13.49
2018-08-13T05:26:03.657Z,13.54
2018-08-13T05:27:04.066Z,13.64
2018-08-13T05:28:04.305Z,13.73
2018-08-13T05:29:04.562Z,13.84
2018-08-13T05:30:05.022Z,13.97
2018-08-13T05:31:05.234Z,13.88
2018-08-13T05:32:05.515Z,14.06
2018-08-13T05:33:05.780Z,14.03
2018-08-13T05:34:06.070Z,14.17
2018-08-13T05:35:06.316Z,14.29
2018-08-13T05:36:06.561Z,14.42
2018-08-13T05:37:06.823Z,14.45
2018-08-13T05:38:07.110Z,14.58
2018-08-13T05:39:07.337Z,14.65
2018-08-13T05:40:07.578Z,14.69
2018-08-13T05:41:07.845Z,14.84
2018-08-13T05:42:08.247Z,14.89
2018-08-13T05:43:08.487Z,14.98
2018-08-13T05:44:08.727Z,14.99
2018-08-13T05:45:08.992Z,15.19
2018-08-13T05:46:09.237Z,15.23
2018-08-13T05:47:09.479Z,15.29
2018-08-13T05:48:09.718Z,15.36
2018-08-13T05:49:09.958Z,15.39
2018-08-13T05:50:10.220Z,15.47
2018-08-13T05:51:10.459Z,15.41
2018-08-13T05:52:10.702Z,15.54
2018-08-13T05:53:10.964Z,15.53
2018-08-13T05:54:11.201Z,15.65
2018-08-13T05:55:11.431Z,15.69
2018-08-13T05:56:11.674Z,15.69
2018-08-13T05:57:11.932Z,15.76
2018-08-13T05:58:12.150Z,15.87
2018-08-13T05:59:12.382Z,15.96
2018-08-13T06:00:12.685Z,16.04
2018-08-13T06:01:12.927Z,16.11
2018-08-13T06:02:13.165Z,16.21
2018-08-13T06:03:13.899Z,16.30
2018-08-13T06:04:13.807Z,16.42
2018-08-13T06:05:14.050Z,16.39
2018-08-13T06:06:14.296Z,16.58
2018-08-13T06:07:14.534Z,16.60
2018-08-13T06:08:14.779Z,16.71
2018-08-13T06:09:15.023Z,16.81
2018-08-13T06:10:15.259Z,16.93
2018-08-13T06:11:15.512Z,17.08
2018-08-13T06:12:15.744Z,17.12
2018-08-13T06:13:15.987Z,17.16
2018-08-13T06:14:16.225Z,17.28
2018-08-13T06:15:16.465Z,17.44
2018-08-13T06:16:16.707Z,17.56
2018-08-13T06:17:16.942Z,17.70
2018-08-13T06:18:17.283Z,17.84
2018-08-13T06:19:17.426Z,17.89
2018-08-13T06:20:17.672Z,18.03
2018-08-13T06:21:17.910Z,18.17
2018-08-13T06:22:18.162Z,18.27
2018-08-13T06:23:18.398Z,18.29
2018-08-13T06:24:18.706Z,18.52
2018-08-13T06:25:18.889Z,18.60
2018-08-13T06:26:19.129Z,18.67
2018-08-13T06:27:19.379Z,18.72
2018-08-13T06:28:19.643Z,18.99
2018-08-13T06:29:19.860Z,19.13
2018-08-13T06:30:20.108Z,19.40
2018-08-13T06:31:20.343Z,19.55
2018-08-13T06:32:20.588Z,19.65
2018-08-13T06:33:20.831Z,19.81
2018-08-13T06:34:21.074Z,19.80
2018-08-13T06:35:21.318Z,19.78
2018-08-13T06:36:21.559Z,19.88
2018-08-13T06:37:21.857Z,19.80
2018-08-13T06:38:22.040Z,19.96
2018-08-13T06:39:22.287Z,20.03
2018-08-13T06:40:22.529Z,20.17
2018-08-13T06:41:22.776Z,20.32
2018-08-13T06:42:23.021Z,20.35
2018-08-13T06:43:23.265Z,20.41
2018-08-13T06:44:23.511Z,20.48
2018-08-13T06:45:23.755Z,20.61
2018-08-13T06:46:24.002Z,20.74
2018-08-13T06:47:24.244Z,20.85
2018-08-13T06:48:24.489Z,20.95
2018-08-13T06:49:24.733Z,20.98
2018-08-13T06:50:24.981Z,21.21
2018-08-13T06:51:25.226Z,21.46
2018-08-13T06:52:25.468Z,21.59
2018-08-13T06:53:25.713Z,21.79
2018-08-13T06:54:25.961Z,22.06
2018-08-13T06:55:26.206Z,22.22
2018-08-13T06:56:26.453Z,22.60
2018-08-13T06:57:26.699Z,23.36
2018-08-13T06:58:26.943Z,24.15
2018-08-13T06:59:27.189Z,23.97
2018-08-13T07:00:27.434Z,24.53
2018-08-13T07:01:27.679Z,24.37
2018-08-13T07:02:27.923Z,23.60
2018-08-13T07:03:28.173Z,23.38
2018-08-13T07:04:28.418Z,22.98
2018-08-13T07:05:28.664Z,22.72
2018-08-13T07:06:28.910Z,22.49
2018-08-13T07:07:29.159Z,22.39
2018-08-13T07:08:29.403Z,22.17
2018-08-13T07:09:29.650Z,21.84
2018-08-13T07:10:29.895Z,21.62
2018-08-13T07:11:30.142Z,21.44
2018-08-13T07:12:30.388Z,21.29
2018-08-13T07:13:30.635Z,21.22
2018-08-13T07:14:30.881Z,21.17
2018-08-13T07:15:31.129Z,21.04
2018-08-13T07:16:31.375Z,21.10
2018-08-13T07:17:31.621Z,21.09
2018-08-13T07:18:31.868Z,21.04
2018-08-13T07:19:32.115Z,20.95
2018-08-13T07:20:32.361Z,20.84
2018-08-13T07:21:32.608Z,20.95
2018-08-13T07:22:32.874Z,20.94
2018-08-13T07:23:33.102Z,20.92
2018-08-13T07:24:33.344Z,20.94
2018-08-13T07:25:33.592Z,21.04
2018-08-13T07:26:33.838Z,21.04
2018-08-13T07:27:34.084Z,21.04
2018-08-13T07:28:34.330Z,21.03
2018-08-13T07:29:34.578Z,21.01
2018-08-13T07:30:34.824Z,21.01
2018-08-13T07:31:35.076Z,20.82
2018-08-13T07:32:35.314Z,20.77
2018-08-13T07:33:35.575Z,20.69
2018-08-13T07:34:35.810Z,20.55
2018-08-13T07:35:36.056Z,20.51
2018-08-13T07:36:36.302Z,20.51
2018-08-13T07:37:36.548Z,20.31
2018-08-13T07:38:36.794Z,20.35
2018-08-13T07:39:37.041Z,20.18
2018-08-13T07:40:37.288Z,20.13
2018-08-13T07:41:37.534Z,19.78
2018-08-13T07:42:37.787Z,19.11
2018-08-13T07:43:38.036Z,18.85
2018-08-13T07:44:38.281Z,18.91
2018-08-13T07:45:38.592Z,18.75
2018-08-13T07:46:38.800Z,18.47
2018-08-13T07:47:39.019Z,18.42
2018-08-13T07:48:39.268Z,18.21
2018-08-13T07:49:39.538Z,17.93
2018-08-13T07:50:39.787Z,17.59
2018-08-13T07:51:40.072Z,17.11
2018-08-13T07:52:40.253Z,16.60
2018-08-13T07:53:40.499Z,16.34
2018-08-13T07:54:40.744Z,16.28
2018-08-13T07:55:40.991Z,16.08
2018-08-13T07:56:41.236Z,16.01
2018-08-13T07:57:41.477Z,16.00
2018-08-13T07:58:41.719Z,15.89
2018-08-13T07:59:41.963Z,15.92
2018-08-13T08:00:42.206Z,15.96
2018-08-13T08:01:42.449Z,15.97
2018-08-13T08:02:42.697Z,15.94
2018-08-13T08:03:42.935Z,16.09
2018-08-13T08:04:43.178Z,16.12
2018-08-13T08:05:43.421Z,16.17
2018-08-13T08:06:43.665Z,16.23
2018-08-13T08:07:43.904Z,16.30
2018-08-13T08:08:44.147Z,16.27
2018-08-13T08:09:44.389Z,16.41
2018-08-13T08:10:44.634Z,16.41
2018-08-13T08:11:44.873Z,16.56
2018-08-13T08:12:45.116Z,16.63
2018-08-13T08:13:45.358Z,16.76
2018-08-13T08:14:45.670Z,16.81
2018-08-13T08:15:45.842Z,16.76
2018-08-13T08:16:46.085Z,16.88
2018-08-13T08:17:46.326Z,16.89
2018-08-13T08:18:46.574Z,16.94
2018-08-13T08:19:46.812Z,16.93
2018-08-13T08:20:47.053Z,16.97
2018-08-13T08:21:47.293Z,17.04
2018-08-13T08:22:47.542Z,16.91
2018-08-13T08:23:47.785Z,17.06
2018-08-13T08:24:48.023Z,17.18
2018-08-13T08:25:48.264Z,17.18
2018-08-13T08:26:48.509Z,17.19
2018-08-13T08:27:48.782Z,17.22
2018-08-13T08:28:48.991Z,17.23
2018-08-13T08:29:49.230Z,17.06
2018-08-13T08:30:49.475Z,16.89
2018-08-13T08:31:49.716Z,16.91
2018-08-13T08:32:49.958Z,16.85
2018-08-13T08:33:50.207Z,16.82
2018-08-13T08:34:50.494Z,16.89
2018-08-13T08:35:50.682Z,16.85
2018-08-13T08:36:50.926Z,16.93
2018-08-13T08:37:51.161Z,16.86
2018-08-13T08:38:51.404Z,16.93
2018-08-13T08:39:51.644Z,16.83
2018-08-13T08:40:51.954Z,16.79
2018-08-13T08:41:52.131Z,16.71
2018-08-13T08:42:52.372Z,16.75
2018-08-13T08:43:52.617Z,16.78
2018-08-13T08:44:52.860Z,16.83
2018-08-13T08:45:53.152Z,16.93
2018-08-13T08:46:53.344Z,16.93
2018-08-13T08:47:53.588Z,16.93
2018-08-13T08:48:53.829Z,16.93
2018-08-13T08:49:54.102Z,16.97
2018-08-13T08:50:54.312Z,16.98
2018-08-13T08:51:54.554Z,17.08
2018-08-13T08:52:54.795Z,17.23
2018-08-13T08:53:55.037Z,17.18
2018-08-13T08:54:55.279Z,17.34
2018-08-13T08:55:55.521Z,17.36
2018-08-13T08:56:55.765Z,17.46
2018-08-13T08:57:56.008Z,17.71
2018-08-13T08:58:56.251Z,17.72
2018-08-13T08:59:56.492Z,17.89
2018-08-13T09:00:56.753Z,18.03
2018-08-13T09:01:56.977Z,18.41
2018-08-13T09:02:57.222Z,19.06
2018-08-13T09:03:57.463Z,19.39
2018-08-13T09:04:57.706Z,19.66
2018-08-13T09:05:57.994Z,19.78
2018-08-13T09:06:58.193Z,19.80
2018-08-13T09:07:58.437Z,19.95
2018-08-13T09:08:58.679Z,19.76
2018-08-13T09:09:58.924Z,19.62
2018-08-13T09:10:59.167Z,19.44
2018-08-13T09:11:59.410Z,19.33
2018-08-13T09:12:59.655Z,19.26
2018-08-13T09:13:59.899Z,18.84
2018-08-13T09:15:00.149Z,18.85
2018-08-13T09:16:00.394Z,18.82
2018-08-13T09:17:00.635Z,18.65
2018-08-13T09:18:00.883Z,18.54
2018-08-13T09:19:01.174Z,18.33
2018-08-13T09:20:01.370Z,18.21
2018-08-13T09:21:01.614Z,18.36
2018-08-13T09:22:01.857Z,18.29
2018-08-13T09:23:02.101Z,18.12
2018-08-13T09:24:02.345Z,18.12
2018-08-13T09:25:02.590Z,18.05
2018-08-13T09:26:02.833Z,18.02
2018-08-13T09:27:03.078Z,18.02
2018-08-13T09:28:03.320Z,18.05
2018-08-13T09:29:03.563Z,17.93
2018-08-13T09:30:03.808Z,17.79
2018-08-13T09:31:04.050Z,17.95
2018-08-13T09:32:04.294Z,17.99
2018-08-13T09:33:04.536Z,18.03
2018-08-13T09:34:04.780Z,17.99
2018-08-13T09:35:05.022Z,18.05
2018-08-13T09:36:05.266Z,18.02
2018-08-13T09:37:05.511Z,18.00
2018-08-13T09:38:05.753Z,18.00
2018-08-13T09:39:05.995Z,18.03
2018-08-13T09:40:06.245Z,18.11
2018-08-13T09:41:06.485Z,18.05
2018-08-13T09:42:06.727Z,18.05
2018-08-13T09:43:06.971Z,18.11
2018-08-13T09:44:07.214Z,18.10
2018-08-13T09:45:07.454Z,18.03
2018-08-13T09:46:07.697Z,18.05
2018-08-13T09:47:07.942Z,18.11
2018-08-13T09:48:08.294Z,18.15
2018-08-13T09:49:08.426Z,18.15
2018-08-13T09:50:08.669Z,18.12
2018-08-13T09:51:08.912Z,18.11
2018-08-13T09:52:09.155Z,18.03
2018-08-13T09:53:09.399Z,18.02
2018-08-13T09:54:09.641Z,18.03
2018-08-13T09:55:09.881Z,18.03
2018-08-13T09:56:10.127Z,18.10
2018-08-13T09:57:10.370Z,18.12
2018-08-13T09:58:10.609Z,18.07
2018-08-13T09:59:10.852Z,18.08
2018-08-13T10:00:11.141Z,18.07
2018-08-13T10:01:11.333Z,18.07
2018-08-13T10:02:11.576Z,18.07
2018-08-13T10:03:11.817Z,17.95
2018-08-13T10:04:12.061Z,17.86
2018-08-13T10:05:12.305Z,17.87
2018-08-13T10:06:12.548Z,17.70
2018-08-13T10:07:12.793Z,17.52
2018-08-13T10:08:13.036Z,17.37
2018-08-13T10:09:13.332Z,17.28
2018-08-13T10:10:13.520Z,17.22
2018-08-13T10:11:13.763Z,17.25
2018-08-13T10:12:14.004Z,17.30
2018-08-13T10:13:14.247Z,17.23
2018-08-13T10:14:14.489Z,17.18
2018-08-13T10:15:14.731Z,17.22
2018-08-13T10:16:14.972Z,17.26
2018-08-13T10:17:15.214Z,17.31
2018-08-13T10:18:15.456Z,17.43
2018-08-13T10:19:15.698Z,17.51
2018-08-13T10:20:15.940Z,17.56
2018-08-13T10:21:16.182Z,17.55
2018-08-13T10:22:16.425Z,17.36
2018-08-13T10:23:16.665Z,17.21
2018-08-13T10:24:16.907Z,17.23
2018-08-13T10:25:17.148Z,17.16
2018-08-13T10:26:17.392Z,17.23
2018-08-13T10:27:17.633Z,17.28
2018-08-13T10:28:17.879Z,17.25
2018-08-13T10:29:18.119Z,17.26
2018-08-13T10:30:18.360Z,17.30
2018-08-13T10:31:18.602Z,17.36
2018-08-13T10:32:18.845Z,17.54
2018-08-13T10:33:19.091Z,17.62
2018-08-13T10:34:19.328Z,17.55
2018-08-13T10:35:19.574Z,17.62
2018-08-13T10:36:19.812Z,17.56
2018-08-13T10:37:20.101Z,17.68
2018-08-13T10:38:20.296Z,17.81
2018-08-13T10:39:20.539Z,17.79
2018-08-13T10:40:20.779Z,17.93
2018-08-13T10:41:21.021Z,17.87
2018-08-13T10:42:21.262Z,17.96
2018-08-13T10:43:21.518Z,17.96
2018-08-13T10:44:21.761Z,18.02
2018-08-13T10:45:21.994Z,18.15
2018-08-13T10:46:22.231Z,18.21
2018-08-13T10:47:22.473Z,18.18
2018-08-13T10:48:22.717Z,18.14
2018-08-13T10:49:22.959Z,18.15
2018-08-13T10:50:23.202Z,18.14
2018-08-13T10:51:23.444Z,18.12
2018-08-13T10:52:23.686Z,18.20
2018-08-13T10:53:23.930Z,18.20
2018-08-13T10:54:24.172Z,18.12
2018-08-13T10:55:24.414Z,18.32
2018-08-13T10:56:24.664Z,18.18
2018-08-13T10:57:24.902Z,18.14
2018-08-13T10:58:25.141Z,18.17
2018-08-13T10:59:25.387Z,18.05
2018-08-13T11:00:25.629Z,18.17
2018-08-13T11:01:25.873Z,18.10
2018-08-13T11:02:26.116Z,18.12
2018-08-13T11:03:26.358Z,18.14
2018-08-13T11:04:26.602Z,18.33
2018-08-13T11:05:26.843Z,18.30
2018-08-13T11:06:27.086Z,18.30
2018-08-13T11:07:27.327Z,18.29
2018-08-13T11:08:27.570Z,18.29
2018-08-13T11:09:27.812Z,18.44
2018-08-13T11:10:28.120Z,18.65
2018-08-13T11:11:28.300Z,18.47
2018-08-13T11:12:28.547Z,18.47
2018-08-13T11:13:28.813Z,18.29
2018-08-13T11:14:29.037Z,18.47
2018-08-13T11:15:29.285Z,18.33
2018-08-13T11:16:29.525Z,18.30
2018-08-13T11:17:29.768Z,18.23
2018-08-13T11:18:30.012Z,18.15
2018-08-13T11:19:30.254Z,18.23
2018-08-13T11:20:31.297Z,18.32
2018-08-13T11:21:30.873Z,18.30
2018-08-13T11:22:31.087Z,18.47
2018-08-13T11:23:31.329Z,18.50
2018-08-13T11:24:31.597Z,18.50
2018-08-13T11:25:31.967Z,18.60
2018-08-13T11:26:32.173Z,18.75
2018-08-13T11:27:32.416Z,18.90
2018-08-13T11:28:32.673Z,19.02
2018-08-13T11:29:32.909Z,19.00
2018-08-13T11:30:33.186Z,19.29
2018-08-13T11:31:33.434Z,19.46
2018-08-13T11:32:33.677Z,19.44
2018-08-13T11:33:33.921Z,19.71
2018-08-13T11:34:34.217Z,19.62
2018-08-13T11:35:34.483Z,19.39
2018-08-13T11:36:34.752Z,19.40
2018-08-13T11:37:34.997Z,19.48
2018-08-13T11:38:35.241Z,19.50
2018-08-13T11:39:35.484Z,19.58
2018-08-13T11:40:35.814Z,19.63
2018-08-13T11:41:36.009Z,19.43
2018-08-13T11:42:36.251Z,19.59
2018-08-13T11:43:36.497Z,19.46
2018-08-13T11:44:36.741Z,19.61
2018-08-13T11:45:36.986Z,19.61
2018-08-13T11:46:37.233Z,19.80
2018-08-13T11:47:37.479Z,19.62
2018-08-13T11:48:37.722Z,19.51
2018-08-13T11:49:37.969Z,19.43
2018-08-13T11:50:38.212Z,19.51
2018-08-13T11:51:38.455Z,19.50
2018-08-13T11:52:38.701Z,19.44
2018-08-13T11:53:38.944Z,19.63
2018-08-13T11:54:39.189Z,19.58
2018-08-13T11:55:39.432Z,19.46
2018-08-13T11:56:39.675Z,19.62
2018-08-13T11:57:39.919Z,19.63
2018-08-13T11:58:40.162Z,19.65
2018-08-13T11:59:40.407Z,19.39
2018-08-13T12:00:40.652Z,19.56
2018-08-13T12:01:40.897Z,19.37
2018-08-13T12:02:41.139Z,19.33
2018-08-13T12:03:41.383Z,19.43
2018-08-13T12:04:41.627Z,19.37
2018-08-13T12:05:41.896Z,19.37
2018-08-13T12:06:42.112Z,19.39
2018-08-13T12:07:42.359Z,19.36
2018-08-13T12:08:42.603Z,19.41
2018-08-13T12:09:42.842Z,19.46
2018-08-13T12:10:43.087Z,19.44
2018-08-13T12:11:43.331Z,19.48
2018-08-13T12:12:43.580Z,19.48
2018-08-13T12:13:43.818Z,19.58
2018-08-13T12:14:44.061Z,19.65
2018-08-13T12:15:44.305Z,19.63
2018-08-13T12:16:44.549Z,19.58
2018-08-13T12:17:44.824Z,19.69
2018-08-13T12:18:45.067Z,19.66
2018-08-13T12:19:45.311Z,19.76
2018-08-13T12:20:45.591Z,19.83
2018-08-13T12:21:45.840Z,19.71
2018-08-13T12:22:46.117Z,19.80
2018-08-13T12:23:46.363Z,19.84
2018-08-13T12:24:46.606Z,19.88
2018-08-13T12:25:46.849Z,19.92
2018-08-13T12:26:47.092Z,20.02
2018-08-13T12:27:47.346Z,20.11
2018-08-13T12:28:47.592Z,20.20
2018-08-13T12:29:47.835Z,20.29
2018-08-13T12:30:48.171Z,20.14
2018-08-13T12:31:48.453Z,20.17
2018-08-13T12:32:48.694Z,20.24
2018-08-13T12:33:48.940Z,20.36
2018-08-13T12:34:49.184Z,20.14
2018-08-13T12:35:49.427Z,20.26
2018-08-13T12:36:49.673Z,20.11
2018-08-13T12:37:49.917Z,20.26
2018-08-13T12:38:50.161Z,20.20
2018-08-13T12:39:50.444Z,20.29
2018-08-13T12:40:50.695Z,20.21
2018-08-13T12:41:50.944Z,20.16
2018-08-13T12:42:51.188Z,20.38
2018-08-13T12:43:51.428Z,20.51
2018-08-13T12:44:51.675Z,20.42
2018-08-13T12:45:51.921Z,20.66
2018-08-13T12:46:52.163Z,20.77
2018-08-13T12:47:52.409Z,20.92
2018-08-13T12:48:52.652Z,21.07
2018-08-13T12:49:52.896Z,21.29
2018-08-13T12:50:53.146Z,21.10
2018-08-13T12:51:53.387Z,21.27
2018-08-13T12:52:53.633Z,21.13
2018-08-13T12:53:53.878Z,20.95
2018-08-13T12:54:54.125Z,20.97
2018-08-13T12:55:54.367Z,21.14